Time;durP1;ratioP1;P1;durP2;ratioP2;P2;SDS_P1;SDS_P2;PMS_P1;PMS_P2;Temp;Humidity;BMP_temperature;BMP_pressure;BME280_temperature;BME280_humidity;BME280_pressure;Samples;Min_cycle;Max_cycle;Signal;HPM_P1;HPM_P2
2022/10/26 00:00:46;;;;;;;16.20;9.15;;;13.50;91.20;;;;;;4981946;28;20085;-75
2022/10/26 00:03:13;;;;;;;15.52;11.38;;;13.50;91.20;;;;;;4993012;28;20140;-77
2022/10/26 00:05:38;;;;;;;14.50;9.38;;;13.60;91.20;;;;;;4996003;28;20663;-75
2022/10/26 00:08:05;;;;;;;12.52;8.55;;;13.60;91.20;;;;;;4992613;28;20085;-76
2022/10/26 00:10:33;;;;;;;13.05;9.15;;;13.50;91.20;;;;;;4992603;28;20025;-76
2022/10/26 00:13:00;;;;;;;10.93;8.43;;;13.50;91.20;;;;;;4987965;28;20030;-76
2022/10/26 00:15:28;;;;;;;15.98;8.85;;;13.50;91.20;;;;;;4986123;28;20049;-76
2022/10/26 00:17:53;;;;;;;14.20;9.15;;;13.50;91.20;;;;;;4991814;28;20472;-75
2022/10/26 00:20:19;;;;;;;17.48;10.00;;;13.60;91.30;;;;;;4992396;28;20033;-76
2022/10/26 00:22:45;;;;;;;14.30;8.85;;;13.60;91.30;;;;;;4994667;28;20030;-75
2022/10/26 00:25:10;;;;;;;13.38;9.13;;;13.60;91.30;;;;;;4992660;28;20546;-76
2022/10/26 00:27:36;;;;;;;14.77;8.60;;;13.60;91.40;;;;;;4992200;28;20026;-75
2022/10/26 00:30:04;;;;;;;11.73;8.80;;;13.50;91.40;;;;;;4990296;28;20039;-76
2022/10/26 00:32:30;;;;;;;17.58;9.02;;;13.50;91.40;;;;;;4990568;28;20018;-76
2022/10/26 00:34:56;;;;;;;13.85;9.02;;;13.50;91.40;;;;;;4994129;28;20113;-75
2022/10/26 00:37:22;;;;;;;12.80;8.52;;;13.50;91.50;;;;;;4993664;28;20477;-74
2022/10/26 00:39:47;;;;;;;10.60;8.02;;;13.50;91.50;;;;;;4992217;28;20027;-76
2022/10/26 00:42:20;;;;;;;14.82;9.80;;;13.50;91.50;;;;;;4988264;28;20098;-74
2022/10/26 00:44:46;;;;;;;16.77;9.60;;;13.50;91.50;;;;;;4990590;28;20030;-75
2022/10/26 00:47:37;;;;;;;15.85;9.57;;;13.50;91.40;;;;;;4991228;28;20104;-76
2022/10/26 00:50:14;;;;;;;15.30;9.23;;;13.50;91.50;;;;;;4987204;28;20026;-77
2022/10/26 00:52:40;;;;;;;15.35;8.57;;;13.50;91.40;;;;;;4990447;28;20057;-75
2022/10/26 00:55:08;;;;;;;13.27;8.25;;;13.50;91.50;;;;;;4989450;28;20038;-76
2022/10/26 00:57:36;;;;;;;13.75;7.90;;;13.50;91.50;;;;;;4990815;28;20026;-75
2022/10/26 01:00:05;;;;;;;18.73;8.98;;;13.50;91.50;;;;;;4989987;28;20137;-75
2022/10/26 01:02:31;;;;;;;12.45;8.23;;;13.50;91.80;;;;;;4989458;28;20076;-75
2022/10/26 01:04:58;;;;;;;13.63;9.00;;;13.50;91.60;;;;;;4990231;28;20034;-75
2022/10/26 01:07:24;;;;;;;11.98;7.75;;;13.50;91.60;;;;;;4986353;28;20089;-76
2022/10/26 01:09:56;;;;;;;18.45;9.75;;;13.50;91.70;;;;;;4987557;28;20169;-75
2022/10/26 01:12:23;;;;;;;15.32;7.78;;;13.50;91.80;;;;;;4990209;28;20460;-74
2022/10/26 01:14:48;;;;;;;14.23;7.55;;;13.50;91.70;;;;;;4991149;28;20078;-76
2022/10/26 01:17:26;;;;;;;16.20;9.20;;;13.60;91.80;;;;;;4989915;28;20018;-75
2022/10/26 01:20:11;;;;;;;15.43;8.80;;;13.50;91.80;;;;;;4996973;28;20030;-75
2022/10/26 01:22:57;;;;;;;12.27;7.57;;;13.50;91.80;;;;;;4984014;28;20027;-75
2022/10/26 01:26:06;;;;;;;13.68;7.50;;;13.50;91.90;;;;;;4985799;28;20129;-75
2022/10/26 01:29:02;;;;;;;16.63;8.45;;;13.50;92.00;;;;;;4990095;28;20023;-75
2022/10/26 01:31:36;;;;;;;13.77;7.70;;;13.40;92.00;;;;;;4989137;28;20046;-75
2022/10/26 01:34:39;;;;;;;10.10;6.13;;;13.40;92.30;;;;;;4977993;28;20034;-76
2022/10/26 01:37:12;;;;;;;11.88;8.20;;;13.40;92.10;;;;;;4985827;28;20101;-74
2022/10/26 01:39:47;;;;;;;10.82;5.88;;;13.40;92.20;;;;;;4989855;28;20026;-75
2022/10/26 01:42:16;;;;;;;10.77;6.32;;;13.40;92.30;;;;;;4990638;28;20026;-75
2022/10/26 01:44:50;;;;;;;15.05;6.57;;;13.40;92.30;;;;;;4990424;28;20058;-74
2022/10/26 01:47:19;;;;;;;13.20;7.43;;;13.40;92.30;;;;;;4980571;28;20022;-75
2022/10/26 01:49:49;;;;;;;13.07;6.65;;;13.40;92.30;;;;;;4989424;28;20744;-74
2022/10/26 01:52:18;;;;;;;13.88;7.25;;;13.50;92.20;;;;;;4990701;28;20032;-76
2022/10/26 01:54:43;;;;;;;10.65;6.38;;;13.50;92.20;;;;;;4979508;28;20035;-75
2022/10/26 01:57:13;;;;;;;14.25;7.95;;;13.50;92.20;;;;;;4991238;28;20388;-75
2022/10/26 02:00:10;;;;;;;14.38;7.22;;;13.50;92.10;;;;;;4990532;28;20147;-75
2022/10/26 02:02:41;;;;;;;12.85;7.03;;;13.50;92.10;;;;;;4990007;28;20039;-76
2022/10/26 02:05:15;;;;;;;13.25;6.90;;;13.40;92.20;;;;;;4991205;28;20030;-76
2022/10/26 02:08:03;;;;;;;10.90;6.63;;;13.40;92.30;;;;;;4991963;28;20032;-75
2022/10/26 02:11:08;;;;;;;14.75;7.30;;;13.40;92.30;;;;;;4992450;28;20042;-76
2022/10/26 02:14:13;;;;;;;10.02;5.32;;;13.40;92.30;;;;;;4991015;28;20052;-74
2022/10/26 02:16:52;;;;;;;11.82;6.45;;;13.40;92.30;;;;;;4986460;28;20050;-75
2022/10/26 02:19:26;;;;;;;13.95;6.57;;;13.40;92.30;;;;;;4990121;28;20539;-76
2022/10/26 02:22:25;;;;;;;14.77;8.50;;;13.40;92.30;;;;;;4996028;28;20034;-75
2022/10/26 02:24:53;;;;;;;12.70;6.32;;;13.40;92.30;;;;;;4982174;28;20038;-75
2022/10/26 02:27:23;;;;;;;12.27;5.97;;;13.40;92.30;;;;;;4998382;28;20030;-75
2022/10/26 02:29:52;;;;;;;12.45;6.93;;;13.40;92.30;;;;;;5001453;28;20121;-74
2022/10/26 02:32:20;;;;;;;11.38;6.75;;;13.40;92.40;;;;;;4994628;28;20096;-75
2022/10/26 02:34:49;;;;;;;17.98;7.10;;;13.40;92.40;;;;;;5004110;28;20018;-76
2022/10/26 02:37:19;;;;;;;12.90;6.75;;;13.40;92.40;;;;;;4996825;28;20064;-76
2022/10/26 02:39:48;;;;;;;10.10;6.57;;;13.40;92.40;;;;;;5003508;28;20165;-76
2022/10/26 02:42:15;;;;;;;14.07;7.60;;;13.40;92.40;;;;;;5000787;28;20117;-76
2022/10/26 02:44:52;;;;;;;15.80;7.10;;;13.40;92.70;;;;;;5003527;28;20038;-75
2022/10/26 02:47:20;;;;;;;9.85;6.20;;;13.40;92.40;;;;;;4998913;28;20030;-75
2022/10/26 02:49:46;;;;;;;10.40;6.57;;;13.50;92.40;;;;;;4994265;28;20121;-75
2022/10/26 02:52:20;;;;;;;13.38;7.05;;;13.50;92.40;;;;;;5000707;28;20388;-76
2022/10/26 02:55:01;;;;;;;10.93;6.97;;;13.50;92.60;;;;;;5000734;28;20105;-75
2022/10/26 02:57:38;;;;;;;15.35;7.82;;;13.50;92.30;;;;;;4998599;28;20170;-75
2022/10/26 03:00:06;;;;;;;16.88;7.13;;;13.50;92.40;;;;;;5004060;28;20022;-75
2022/10/26 03:02:31;;;;;;;12.57;6.88;;;13.50;92.40;;;;;;4996585;28;20136;-75
2022/10/26 03:05:12;;;;;;;12.02;6.28;;;13.50;92.40;;;;;;4998443;28;20452;-75
2022/10/26 03:07:37;;;;;;;;;;;13.50;92.70;;;;;;5001923;28;20065;-75
2022/10/26 03:10:04;;;;;;;11.68;8.13;;;13.60;92.50;;;;;;4997978;28;19953;-74
2022/10/26 03:12:31;;;;;;;14.18;8.52;;;13.50;92.40;;;;;;4998972;28;20034;-75
2022/10/26 03:14:57;;;;;;;15.60;7.22;;;13.50;92.50;;;;;;4997139;28;20101;-76
2022/10/26 03:17:22;;;;;;;14.98;8.13;;;13.50;92.60;;;;;;5006585;28;20431;-77
2022/10/26 03:19:48;;;;;;;14.75;7.18;;;13.50;92.70;;;;;;4993417;28;20040;-76
2022/10/26 03:22:14;;;;;;;16.30;8.25;;;13.50;92.70;;;;;;4992587;28;20023;-76
2022/10/26 03:24:40;;;;;;;9.43;5.78;;;13.50;92.70;;;;;;4994162;28;20042;-75
2022/10/26 03:27:06;;;;;;;11.75;6.53;;;13.50;92.70;;;;;;4994743;28;20026;-76
2022/10/26 03:29:32;;;;;;;13.73;6.90;;;13.60;92.70;;;;;;4990534;28;20484;-75
2022/10/26 03:31:58;;;;;;;12.88;7.47;;;13.60;92.70;;;;;;4994329;28;20034;-76
2022/10/26 03:34:24;;;;;;;11.77;6.45;;;13.60;92.70;;;;;;4991509;28;20154;-76
2022/10/26 03:36:49;;;;;;;12.73;7.07;;;13.60;92.70;;;;;;4993070;28;20480;-76
2022/10/26 03:39:15;;;;;;;13.02;7.15;;;13.60;92.70;;;;;;4991601;28;20501;-75
2022/10/26 03:41:40;;;;;;;11.13;6.38;;;13.70;92.70;;;;;;4992545;28;20033;-76
2022/10/26 03:44:08;;;;;;;12.70;7.05;;;13.70;92.60;;;;;;4992746;28;20037;-76
2022/10/26 03:46:34;;;;;;;11.63;7.22;;;13.60;92.60;;;;;;4992366;28;20026;-75
2022/10/26 03:48:59;;;;;;;14.23;6.78;;;13.60;92.60;;;;;;4991595;28;20029;-76
2022/10/26 03:51:25;;;;;;;11.02;6.72;;;13.60;92.60;;;;;;4992745;28;20121;-76
2022/10/26 03:53:51;;;;;;;13.82;6.93;;;13.70;92.60;;;;;;4990660;28;20086;-75
2022/10/26 03:56:16;;;;;;;14.50;6.95;;;13.70;92.50;;;;;;4991979;28;20030;-75
2022/10/26 03:58:43;;;;;;;12.70;6.88;;;13.70;92.50;;;;;;4992001;28;20034;-75
2022/10/26 04:01:08;;;;;;;11.35;6.43;;;13.70;92.60;;;;;;4990373;28;20033;-74
2022/10/26 04:03:34;;;;;;;9.18;5.63;;;13.70;92.50;;;;;;4991907;28;20030;-75
2022/10/26 04:06:00;;;;;;;14.80;8.20;;;13.70;92.50;;;;;;4992214;28;20046;-74
2022/10/26 04:08:26;;;;;;;12.73;6.07;;;13.70;92.50;;;;;;4993044;28;20110;-76
2022/10/26 04:10:52;;;;;;;14.35;6.90;;;13.70;92.40;;;;;;4990247;28;20483;-76
2022/10/26 04:13:17;;;;;;;11.68;6.28;;;13.70;92.50;;;;;;4992128;28;20030;-74
2022/10/26 04:15:43;;;;;;;10.73;6.47;;;13.70;92.40;;;;;;4989941;28;20038;-76
2022/10/26 04:18:11;;;;;;;12.73;6.00;;;13.70;92.40;;;;;;4999954;28;20053;-74
2022/10/26 04:20:40;;;;;;;13.07;6.63;;;13.70;92.30;;;;;;4995950;28;20496;-75
2022/10/26 04:23:09;;;;;;;11.32;6.10;;;13.70;92.30;;;;;;4999628;28;20035;-75
2022/10/26 04:25:35;;;;;;;11.75;5.53;;;13.60;92.30;;;;;;4992134;28;20144;-75
2022/10/26 04:28:02;;;;;;;11.80;6.40;;;13.60;92.30;;;;;;4992340;28;20097;-76
2022/10/26 04:30:28;;;;;;;15.68;7.35;;;13.60;92.30;;;;;;4991398;28;20027;-74
2022/10/26 04:32:54;;;;;;;11.05;6.70;;;13.60;92.40;;;;;;4995319;28;20454;-75
2022/10/26 04:35:19;;;;;;;11.45;6.85;;;13.60;92.40;;;;;;4996749;28;20030;-75
2022/10/26 04:37:45;;;;;;;10.55;5.90;;;13.60;92.40;;;;;;4995025;28;20031;-76
2022/10/26 04:40:11;;;;;;;10.30;6.15;;;13.60;92.40;;;;;;4991775;28;20026;-74
2022/10/26 04:42:46;;;;;;;12.05;6.55;;;13.60;92.40;;;;;;4992791;28;20116;-75
2022/10/26 04:45:14;;;;;;;11.60;6.07;;;13.60;92.50;;;;;;4988916;28;20030;-75
2022/10/26 04:47:40;;;;;;;9.77;5.18;;;13.60;92.40;;;;;;4991803;28;20029;-75
2022/10/26 04:50:08;;;;;;;13.70;7.22;;;13.60;92.40;;;;;;4991271;28;20030;-75
2022/10/26 04:52:34;;;;;;;9.60;5.45;;;13.60;92.40;;;;;;4992136;28;20104;-75
2022/10/26 04:55:00;;;;;;;12.77;6.35;;;13.60;92.40;;;;;;4991701;28;20034;-74
2022/10/26 04:57:26;;;;;;;8.13;4.35;;;13.60;92.40;;;;;;4992200;28;20031;-75
2022/10/26 04:59:52;;;;;;;9.40;5.00;;;13.70;92.30;;;;;;4991140;28;20107;-75
2022/10/26 05:02:19;;;;;;;12.02;6.70;;;13.60;92.30;;;;;;4991918;28;20050;-74
2022/10/26 05:04:46;;;;;;;11.18;6.28;;;13.60;92.20;;;;;;4991559;28;20034;-75
2022/10/26 05:07:13;;;;;;;12.15;6.05;;;13.60;92.30;;;;;;4992024;28;20081;-75
2022/10/26 05:09:41;;;;;;;11.45;5.82;;;13.60;92.40;;;;;;4991387;28;20027;-75
2022/10/26 05:12:06;;;;;;;10.65;5.18;;;13.60;92.40;;;;;;4991242;28;20034;-75
2022/10/26 05:14:32;;;;;;;12.45;5.80;;;13.60;92.40;;;;;;4991724;28;20058;-75
2022/10/26 05:16:58;;;;;;;16.90;8.50;;;13.60;92.40;;;;;;4991794;28;20028;-75
2022/10/26 05:19:25;;;;;;;12.10;6.50;;;13.60;92.50;;;;;;4991755;28;20077;-75
2022/10/26 05:21:52;;;;;;;12.48;6.47;;;13.60;92.60;;;;;;4991521;28;20085;-74
2022/10/26 05:24:18;;;;;;;8.40;5.03;;;13.60;92.60;;;;;;4986154;28;20133;-75
2022/10/26 05:26:45;;;;;;;14.30;7.45;;;13.60;92.50;;;;;;4983441;28;20039;-75
2022/10/26 05:29:10;;;;;;;16.25;8.48;;;13.60;92.60;;;;;;4991810;28;20057;-76
2022/10/26 05:31:36;;;;;;;13.38;6.35;;;13.60;92.70;;;;;;4991941;28;20477;-76
2022/10/26 05:34:02;;;;;;;12.15;6.28;;;13.60;92.70;;;;;;4991821;28;20026;-75
2022/10/26 05:36:27;;;;;;;11.65;7.47;;;13.60;92.70;;;;;;4991644;28;20121;-75
2022/10/26 05:38:56;;;;;;;15.05;7.35;;;13.70;92.70;;;;;;4989646;28;20030;-74
2022/10/26 05:41:22;;;;;;;11.30;5.68;;;13.70;92.80;;;;;;4990674;28;20081;-76
2022/10/26 05:43:48;;;;;;;10.32;6.55;;;13.70;92.70;;;;;;4991406;28;20034;-74
2022/10/26 05:46:15;;;;;;;15.77;6.55;;;13.70;92.70;;;;;;4990417;28;20110;-76
2022/10/26 05:48:40;;;;;;;11.98;6.70;;;13.70;92.80;;;;;;4991922;28;20050;-76
2022/10/26 05:51:06;;;;;;;10.30;5.88;;;13.70;92.70;;;;;;4990195;28;20425;-74
2022/10/26 05:53:33;;;;;;;12.00;6.40;;;13.80;92.80;;;;;;4992060;28;20192;-75
2022/10/26 05:55:59;;;;;;;14.82;7.57;;;13.80;92.70;;;;;;4991058;28;20038;-76
2022/10/26 05:58:25;;;;;;;13.35;7.15;;;13.80;92.70;;;;;;4991325;28;20430;-75
2022/10/26 06:01:06;;;;;;;10.13;5.10;;;13.80;92.60;;;;;;4993336;28;20034;-74
2022/10/26 06:03:44;;;;;;;12.00;6.07;;;13.80;92.60;;;;;;4994325;28;20025;-76
2022/10/26 06:06:12;;;;;;;16.00;6.25;;;13.90;92.60;;;;;;4992398;28;20443;-75
2022/10/26 06:08:38;;;;;;;10.77;6.28;;;13.90;92.60;;;;;;4994123;28;20028;-74
2022/10/26 06:11:04;;;;;;;10.00;5.55;;;13.90;92.60;;;;;;4996396;28;20105;-76
2022/10/26 06:13:29;;;;;;;12.38;6.50;;;13.90;92.60;;;;;;4995356;28;20032;-74
2022/10/26 06:16:25;;;;;;;14.20;6.45;;;13.90;92.50;;;;;;4992338;28;20042;-75
2022/10/26 06:19:09;;;;;;;12.23;4.95;;;14.00;92.50;;;;;;4991600;28;20031;-75
2022/10/26 06:21:47;;;;;;;12.95;6.00;;;14.00;92.40;;;;;;4988924;28;20022;-74
2022/10/26 06:24:43;;;;;;;9.88;4.60;;;13.90;92.40;;;;;;4993234;28;20022;-75
2022/10/26 06:27:43;;;;;;;6.72;3.83;;;14.00;92.40;;;;;;4983345;28;20043;-75
2022/10/26 06:30:12;;;;;;;10.82;5.57;;;13.90;92.40;;;;;;4994761;28;20109;-76
2022/10/26 06:32:42;;;;;;;11.02;6.15;;;13.90;92.30;;;;;;4995970;28;20053;-75
2022/10/26 06:35:31;;;;;;;7.65;5.13;;;13.90;92.50;;;;;;4992620;28;20129;-76
2022/10/26 06:38:01;;;;;;;10.48;5.35;;;13.90;92.40;;;;;;4994672;28;20034;-76
2022/10/26 06:40:31;;;;;;;13.73;6.28;;;13.90;92.40;;;;;;4993396;28;20018;-75
2022/10/26 06:43:00;;;;;;;11.63;5.45;;;13.90;92.30;;;;;;4994148;28;20044;-74
2022/10/26 06:45:26;;;;;;;16.03;7.07;;;14.00;92.30;;;;;;4993298;28;20022;-74
2022/10/26 06:47:52;;;;;;;10.20;6.65;;;14.00;92.30;;;;;;4994204;28;20265;-75
2022/10/26 06:50:46;;;;;;;11.05;6.63;;;14.00;92.30;;;;;;4993934;28;20034;-75
2022/10/26 06:53:24;;;;;;;14.20;8.55;;;14.00;92.30;;;;;;5002769;28;20114;-76
2022/10/26 06:55:51;;;;;;;13.75;7.75;;;14.00;92.30;;;;;;5001616;28;20065;-74
2022/10/26 06:58:19;;;;;;;11.32;5.57;;;14.00;92.30;;;;;;4997701;28;20050;-76
2022/10/26 07:00:47;;;;;;;11.07;5.50;;;14.00;92.40;;;;;;4992799;28;20460;-76
2022/10/26 07:03:13;;;;;;;12.07;5.63;;;14.30;92.40;;;;;;4997074;28;20023;-77
2022/10/26 07:05:43;;;;;;;11.07;5.60;;;14.50;92.20;;;;;;5001587;28;20072;-77
2022/10/26 07:08:12;;;;;;;10.73;5.00;;;14.80;92.20;;;;;;5012011;28;20056;-76
2022/10/26 07:10:41;;;;;;;12.75;5.18;;;15.10;91.90;;;;;;5000858;28;20042;-76
2022/10/26 07:13:12;;;;;;;12.88;5.18;;;15.30;91.70;;;;;;5000398;28;20532;-77
2022/10/26 07:15:39;;;;;;;9.98;4.05;;;15.50;92.00;;;;;;4998460;28;20061;-77
2022/10/26 07:18:06;;;;;;;8.93;5.20;;;15.90;92.10;;;;;;5005731;28;20380;-76
2022/10/26 07:20:39;;;;;;;7.07;3.92;;;16.30;91.90;;;;;;4995962;28;20026;-76
2022/10/26 07:23:06;;;;;;;9.00;3.85;;;16.90;91.20;;;;;;5001615;28;20038;-76
2022/10/26 07:25:37;;;;;;;13.05;3.72;;;17.30;90.20;;;;;;4999348;28;20037;-77
2022/10/26 07:28:03;;;;;;;4.93;2.17;;;17.80;88.70;;;;;;4994440;28;20238;-76
2022/10/26 07:30:30;;;;;;;9.35;2.60;;;18.10;85.50;;;;;;5003533;28;20312;-76
2022/10/26 07:33:05;;;;;;;8.15;2.75;;;18.40;82.20;;;;;;5005860;28;20041;-76
2022/10/26 07:35:32;;;;;;;7.90;3.50;;;18.70;82.90;;;;;;5001195;28;20098;-77
2022/10/26 07:38:00;;;;;;;6.28;2.50;;;19.00;82.30;;;;;;4993458;28;20031;-77
2022/10/26 07:40:27;;;;;;;10.18;2.90;;;19.10;79.40;;;;;;4986249;28;20101;-76
2022/10/26 07:42:56;;;;;;;8.38;2.95;;;19.30;77.40;;;;;;4990225;28;20022;-76
2022/10/26 07:45:22;;;;;;;9.35;3.47;;;19.30;78.10;;;;;;4991827;28;20034;-77
2022/10/26 07:47:49;;;;;;;6.78;1.75;;;19.30;78.90;;;;;;4989975;28;20027;-75
2022/10/26 07:50:17;;;;;;;6.35;2.72;;;19.40;79.20;;;;;;4995393;28;20034;-75
2022/10/26 07:52:42;;;;;;;5.00;1.98;;;19.40;78.90;;;;;;4993630;28;20400;-74
2022/10/26 07:55:10;;;;;;;7.22;2.45;;;19.40;79.30;;;;;;4991420;28;20634;-74
2022/10/26 07:57:36;;;;;;;5.72;2.33;;;19.40;79.90;;;;;;4992621;28;20033;-74
2022/10/26 08:00:03;;;;;;;6.68;2.58;;;19.50;80.30;;;;;;4994338;28;20019;-75
2022/10/26 08:02:29;;;;;;;4.13;1.80;;;19.60;78.70;;;;;;4993523;28;20027;-76
2022/10/26 08:04:54;;;;;;;5.82;2.17;;;19.70;79.30;;;;;;4993153;28;20044;-78
2022/10/26 08:07:20;;;;;;;4.68;2.00;;;19.70;78.80;;;;;;4994583;28;20026;-77
2022/10/26 08:09:46;;;;;;;4.78;2.08;;;19.70;77.70;;;;;;4995709;28;20030;-76
2022/10/26 08:12:15;;;;;;;5.25;2.15;;;19.80;78.30;;;;;;4982666;28;20507;-76
2022/10/26 08:14:41;;;;;;;6.53;1.95;;;19.80;78.50;;;;;;4992463;28;20114;-75
2022/10/26 08:17:08;;;;;;;6.38;2.10;;;19.80;78.70;;;;;;4994280;28;20034;-76
2022/10/26 08:19:34;;;;;;;4.18;1.80;;;19.80;78.10;;;;;;4994470;28;20077;-77
2022/10/26 08:21:59;;;;;;;3.53;1.48;;;19.90;78.40;;;;;;4993753;28;20503;-76
2022/10/26 08:24:26;;;;;;;3.92;1.40;;;20.00;78.20;;;;;;4987630;28;20109;-76
2022/10/26 08:26:51;;;;;;;4.72;1.30;;;20.00;78.00;;;;;;4996423;28;20031;-76
2022/10/26 08:29:17;;;;;;;5.28;2.25;;;20.10;77.90;;;;;;4997980;28;20564;-76
2022/10/26 08:31:43;;;;;;;6.57;2.47;;;20.10;77.10;;;;;;4990669;28;20033;-76
2022/10/26 08:34:08;;;;;;;5.20;1.67;;;20.10;75.80;;;;;;4991593;28;20041;-77
2022/10/26 08:36:35;;;;;;;4.10;1.60;;;20.10;76.40;;;;;;4989554;28;20018;-77
2022/10/26 08:39:01;;;;;;;8.35;1.90;;;20.00;76.40;;;;;;4987065;28;20030;-78
2022/10/26 08:41:33;;;;;;;4.40;1.95;;;20.00;76.40;;;;;;4989439;28;20033;-79
2022/10/26 08:44:22;;;;;;;4.72;1.70;;;20.10;76.90;;;;;;4989842;28;20110;-77
2022/10/26 08:46:54;;;;;;;3.35;1.65;;;20.20;76.40;;;;;;4989198;28;20045;-78
2022/10/26 08:49:28;;;;;;;4.72;2.65;;;20.30;76.30;;;;;;4991988;28;20034;-77
2022/10/26 08:51:58;;;;;;;4.72;1.50;;;20.40;76.10;;;;;;4993138;28;20113;-77
2022/10/26 08:54:40;;;;;;;6.32;1.63;;;20.50;75.90;;;;;;4984204;28;20030;-78
2022/10/26 08:57:25;;;;;;;5.80;1.55;;;20.70;75.40;;;;;;4990362;28;20030;-78
2022/10/26 09:00:04;;;;;;;5.07;1.42;;;20.80;74.90;;;;;;4988655;28;20113;-78
2022/10/26 09:02:30;;;;;;;3.07;1.00;;;20.90;75.60;;;;;;4991051;28;20046;-78
2022/10/26 09:04:58;;;;;;;2.33;1.00;;;21.10;75.70;;;;;;4986463;28;20505;-77
2022/10/26 09:07:29;;;;;;;7.40;1.58;;;21.20;75.60;;;;;;4980099;28;20493;-77
2022/10/26 09:10:15;;;;;;;3.78;1.45;;;21.30;73.70;;;;;;4991257;28;20034;-78
2022/10/26 09:12:48;;;;;;;4.75;1.17;;;21.50;74.00;;;;;;4991437;28;20030;-78
2022/10/26 09:15:24;;;;;;;5.03;1.45;;;21.60;73.60;;;;;;4989972;28;20050;-79
2022/10/26 09:18:05;;;;;;;5.10;1.48;;;21.60;72.40;;;;;;4991345;28;20033;-78
2022/10/26 09:20:54;;;;;;;4.53;1.33;;;21.60;73.30;;;;;;4995192;28;20080;-78
2022/10/26 09:23:46;;;;;;;3.53;1.25;;;21.70;73.50;;;;;;4991118;28;20027;-78
2022/10/26 09:26:17;;;;;;;5.03;1.40;;;21.90;74.30;;;;;;4992317;28;20037;-77
2022/10/26 09:28:46;;;;;;;5.45;1.45;;;21.90;72.00;;;;;;4990508;28;20570;-77
2022/10/26 09:31:15;;;;;;;4.53;1.52;;;22.00;74.20;;;;;;4992808;28;20031;-78
2022/10/26 09:33:41;;;;;;;5.87;2.30;;;22.00;74.20;;;;;;4990839;28;20476;-78
2022/10/26 09:36:19;;;;;;;3.10;1.45;;;22.00;71.20;;;;;;4979920;28;20041;-78
2022/10/26 09:39:07;;;;;;;4.20;1.48;;;22.00;73.70;;;;;;4992111;28;20026;-77
2022/10/26 09:41:46;;;;;;;3.00;1.35;;;22.00;75.50;;;;;;4984960;28;20847;-78
2022/10/26 09:44:36;;;;;;;4.13;1.10;;;22.00;74.00;;;;;;4990041;28;20148;-77
2022/10/26 09:47:11;;;;;;;3.28;1.40;;;22.10;75.50;;;;;;4990966;28;20030;-79
2022/10/26 09:49:48;;;;;;;3.83;1.70;;;22.20;76.90;;;;;;4990867;28;20031;-78
2022/10/26 09:52:15;;;;;;;4.53;2.00;;;22.20;75.40;;;;;;4994155;28;20026;-77
2022/10/26 09:54:41;;;;;;;2.85;1.30;;;22.30;76.50;;;;;;4990853;28;20062;-78
2022/10/26 09:57:14;;;;;;;4.75;1.80;;;22.40;75.80;;;;;;4987000;28;20132;-78
2022/10/26 09:59:40;;;;;;;6.18;1.63;;;22.50;74.00;;;;;;4989898;28;20473;-79
2022/10/26 10:02:33;;;;;;;4.63;1.98;;;22.70;75.40;;;;;;4991107;28;20538;-78
2022/10/26 10:04:59;;;;;;;6.70;2.00;;;22.70;73.40;;;;;;4985280;28;20109;-77
2022/10/26 10:07:31;;;;;;;5.47;2.15;;;22.70;74.10;;;;;;4991440;28;20093;-78
2022/10/26 10:10:13;;;;;;;4.38;1.30;;;22.70;73.60;;;;;;4991222;28;20054;-78
2022/10/26 10:12:39;;;;;;;3.58;1.50;;;22.50;75.80;;;;;;4989979;28;20080;-79
2022/10/26 10:15:15;;;;;;;4.45;1.70;;;22.50;77.10;;;;;;4987716;28;20043;-77
2022/10/26 10:17:47;;;;;;;5.57;1.88;;;22.40;76.80;;;;;;4989969;28;20150;-78
2022/10/26 10:20:23;;;;;;;4.43;2.03;;;22.40;75.90;;;;;;4991355;28;20038;-77
2022/10/26 10:23:00;;;;;;;7.68;3.17;;;22.30;75.50;;;;;;4991670;28;20022;-79
2022/10/26 10:25:31;;;;;;;8.95;2.15;;;22.20;74.00;;;;;;4991878;28;20034;-77
2022/10/26 10:27:56;;;;;;;4.85;2.55;;;22.00;72.60;;;;;;4993058;28;20049;-78
2022/10/26 10:30:28;;;;;;;4.75;2.05;;;22.00;75.30;;;;;;4987120;28;20058;-78
2022/10/26 10:33:11;;;;;;;7.03;2.65;;;22.00;75.40;;;;;;4987789;28;20030;-79
2022/10/26 10:35:46;;;;;;;8.05;1.38;;;22.10;74.50;;;;;;4998119;28;20090;-79
2022/10/26 10:38:17;;;;;;;6.03;1.95;;;22.20;77.10;;;;;;4984008;28;20026;-78
2022/10/26 10:40:51;;;;;;;5.43;2.00;;;22.40;74.40;;;;;;4988705;28;20070;-77
2022/10/26 10:43:17;;;;;;;5.25;1.63;;;22.50;74.90;;;;;;4980391;28;20045;-78
2022/10/26 10:45:47;;;;;;;5.05;1.98;;;22.50;74.50;;;;;;4989436;28;20027;-79
2022/10/26 10:48:19;;;;;;;5.75;2.25;;;22.60;76.30;;;;;;4992720;28;20113;-77
2022/10/26 10:51:01;;;;;;;6.55;2.30;;;22.60;74.00;;;;;;4994021;28;20026;-77
2022/10/26 10:53:45;;;;;;;6.97;2.20;;;22.60;73.30;;;;;;4992073;28;20055;-79
2022/10/26 10:56:14;;;;;;;7.20;2.35;;;22.70;72.90;;;;;;4998052;28;20101;-77
2022/10/26 10:59:00;;;;;;;8.13;2.10;;;22.80;71.90;;;;;;4998952;28;20030;-80
2022/10/26 11:01:34;;;;;;;5.85;2.05;;;22.80;73.00;;;;;;5000973;28;20498;-79
2022/10/26 11:04:34;;;;;;;8.10;1.90;;;22.70;77.10;;;;;;5002161;28;20034;-78
2022/10/26 11:07:03;;;;;;;6.70;2.78;;;22.70;77.70;;;;;;4996340;28;20089;-78
2022/10/26 11:09:35;;;;;;;6.75;2.05;;;22.60;75.00;;;;;;4999836;28;20022;-78
2022/10/26 11:12:12;;;;;;;9.48;3.13;;;22.60;77.50;;;;;;4998766;28;20058;-78
2022/10/26 11:14:42;;;;;;;7.15;2.78;;;22.60;77.30;;;;;;4985498;28;20554;-77
2022/10/26 11:17:20;;;;;;;5.38;2.50;;;22.80;77.60;;;;;;4993374;28;20026;-78
2022/10/26 11:19:52;;;;;;;7.30;2.50;;;22.80;75.00;;;;;;4993740;28;20034;-74
2022/10/26 11:22:41;;;;;;;10.10;3.67;;;22.70;73.70;;;;;;4995333;28;20038;-77
2022/10/26 11:25:15;;;;;;;7.57;3.22;;;22.80;73.80;;;;;;4994555;28;20499;-77
2022/10/26 11:27:49;;;;;;;6.50;2.33;;;22.80;75.10;;;;;;4999851;28;20029;-77
2022/10/26 11:30:26;;;;;;;5.25;1.80;;;22.70;73.20;;;;;;4990792;28;20082;-78
2022/10/26 11:33:20;;;;;;;8.77;2.47;;;22.60;74.20;;;;;;5000546;28;20023;-77
2022/10/26 11:35:49;;;;;;;6.68;1.95;;;22.70;74.80;;;;;;5001472;28;20022;-77
2022/10/26 11:38:34;;;;;;;9.75;2.35;;;22.80;74.60;;;;;;4997828;28;20065;-78
2022/10/26 11:41:21;;;;;;;8.10;2.47;;;23.00;74.70;;;;;;4999862;28;20105;-77
2022/10/26 11:43:49;;;;;;;8.73;2.30;;;23.00;75.10;;;;;;5002397;28;20050;-77
2022/10/26 11:46:20;;;;;;;8.95;2.80;;;23.00;74.00;;;;;;4999469;28;20030;-78
2022/10/26 11:49:18;;;;;;;9.65;3.10;;;22.90;71.80;;;;;;5005836;28;20032;-77
2022/10/26 11:52:05;;;;;;;6.35;2.20;;;22.80;70.50;;;;;;4991739;28;20037;-77
2022/10/26 11:54:36;;;;;;;5.60;2.10;;;22.60;75.10;;;;;;4982024;28;20026;-78
2022/10/26 11:57:04;;;;;;;7.97;2.60;;;22.40;75.70;;;;;;4989985;28;20757;-77
2022/10/26 11:59:36;;;;;;;6.45;2.30;;;22.20;73.50;;;;;;4986872;28;20505;-78
2022/10/26 12:02:15;;;;;;;7.63;2.78;;;22.00;76.60;;;;;;4992140;28;20109;-77
2022/10/26 12:04:43;;;;;;;7.32;2.42;;;21.80;75.20;;;;;;4982142;28;20050;-77
2022/10/26 12:07:31;;;;;;;6.35;2.42;;;21.70;76.50;;;;;;4991787;28;20044;-78
2022/10/26 12:09:59;;;;;;;9.10;3.25;;;21.70;75.10;;;;;;4982758;28;20019;-77
2022/10/26 12:12:47;;;;;;;6.90;2.85;;;21.60;76.30;;;;;;4991761;28;20042;-77
2022/10/26 12:15:40;;;;;;;6.60;2.83;;;21.60;77.30;;;;;;4990581;28;20058;-79
2022/10/26 12:18:16;;;;;;;9.05;2.88;;;21.70;76.10;;;;;;4990671;28;20034;-76
2022/10/26 12:20:45;;;;;;;11.07;3.47;;;21.80;74.60;;;;;;4991007;28;20022;-77
2022/10/26 12:23:11;;;;;;;8.73;2.63;;;21.90;74.40;;;;;;4991182;28;20121;-76
2022/10/26 12:25:38;;;;;;;13.55;2.47;;;22.10;75.20;;;;;;4991532;28;20065;-77
2022/10/26 12:28:04;;;;;;;4.68;2.00;;;22.40;75.60;;;;;;4988982;28;20397;-77
2022/10/26 12:30:33;;;;;;;8.48;3.30;;;22.70;75.40;;;;;;4991932;28;20431;-77
2022/10/26 12:33:02;;;;;;;6.88;2.53;;;23.00;73.10;;;;;;4990212;28;20030;-77
2022/10/26 12:35:40;;;;;;;7.90;2.28;;;23.10;71.30;;;;;;4987705;28;20493;-76
2022/10/26 12:38:20;;;;;;;8.75;2.67;;;23.10;72.90;;;;;;4989235;28;20105;-75
2022/10/26 12:40:47;;;;;;;6.68;2.80;;;23.10;71.60;;;;;;4986786;28;20049;-75
2022/10/26 12:43:14;;;;;;;4.95;2.00;;;23.20;70.90;;;;;;4992460;28;20476;-76
2022/10/26 12:45:41;;;;;;;6.90;2.65;;;23.40;73.80;;;;;;4991299;28;20038;-75
2022/10/26 12:48:38;;;;;;;7.70;3.00;;;23.40;68.60;;;;;;4986298;28;20049;-75
2022/10/26 12:51:23;;;;;;;7.95;3.17;;;23.40;69.90;;;;;;4983932;28;20049;-77
2022/10/26 12:54:09;;;;;;;7.28;2.75;;;23.40;68.40;;;;;;4988686;28;20057;-77
2022/10/26 12:56:43;;;;;;;7.57;2.03;;;23.60;71.50;;;;;;4977023;28;20117;-77
2022/10/26 12:59:18;;;;;;;6.07;1.77;;;23.70;70.70;;;;;;4989160;28;20032;-77
2022/10/26 13:02:07;;;;;;;5.82;2.28;;;23.80;73.60;;;;;;4984895;28;20078;-77
2022/10/26 13:05:05;;;;;;;13.15;3.25;;;23.90;70.80;;;;;;4986548;28;20768;-76